Time;durP1;ratioP1;P1;durP2;ratioP2;P2;SDS_P1;SDS_P2;PMS_P1;PMS_P2;Temp;Humidity;BMP_temperature;BMP_pressure;BME280_temperature;BME280_humidity;BME280_pressure;Samples;Min_cycle;Max_cycle;Signal;HPM_P1;HPM_P2
2022/09/23 00:00:04;;;;;;;13.82;12.52;;;9.00;99.90;;;;;;5001516;28;20065;-67
2022/09/23 00:02:30;;;;;;;13.10;11.77;;;9.00;99.90;;;;;;4998823;28;20045;-67
2022/09/23 00:04:56;;;;;;;13.93;12.30;;;9.00;99.90;;;;;;5000479;28;20374;-67
2022/09/23 00:07:21;;;;;;;14.38;12.35;;;8.90;99.90;;;;;;4997236;28;20046;-68
2022/09/23 00:09:47;;;;;;;14.38;13.02;;;9.00;99.90;;;;;;5001055;28;20174;-68
2022/09/23 00:12:13;;;;;;;14.95;13.43;;;8.90;99.90;;;;;;5000688;28;20393;-67
2022/09/23 00:14:38;;;;;;;13.80;12.40;;;8.90;99.90;;;;;;5004443;28;20053;-68
2022/09/23 00:17:05;;;;;;;14.57;13.38;;;8.90;99.90;;;;;;4999945;28;20078;-67
2022/09/23 00:19:31;;;;;;;13.98;12.68;;;8.90;99.90;;;;;;5001224;28;20045;-68
2022/09/23 00:21:57;;;;;;;16.13;13.82;;;8.90;99.90;;;;;;5005995;28;20149;-68
2022/09/23 00:24:22;;;;;;;14.57;13.23;;;8.90;99.90;;;;;;5002766;28;20093;-68
2022/09/23 00:26:48;;;;;;;16.85;13.63;;;8.80;99.90;;;;;;5015856;28;20056;-68
2022/09/23 00:29:17;;;;;;;14.68;12.90;;;8.80;99.90;;;;;;5001667;28;20117;-67
2022/09/23 00:31:43;;;;;;;15.23;13.68;;;8.80;99.90;;;;;;5004646;28;20045;-67
2022/09/23 00:34:10;;;;;;;14.50;13.23;;;8.80;99.90;;;;;;5005562;28;20061;-67
2022/09/23 00:36:36;;;;;;;18.88;16.48;;;8.80;99.90;;;;;;5003459;28;20109;-68
2022/09/23 00:39:02;;;;;;;15.45;14.05;;;8.80;99.90;;;;;;5001969;28;20564;-67
2022/09/23 00:41:29;;;;;;;14.30;12.80;;;8.80;99.90;;;;;;4997112;28;20056;-67
2022/09/23 00:43:57;;;;;;;14.70;13.40;;;8.80;99.90;;;;;;5002831;28;20045;-67
2022/09/23 00:46:35;;;;;;;15.75;13.85;;;8.80;99.90;;;;;;5013271;28;20074;-67
2022/09/23 00:49:26;;;;;;;16.30;14.88;;;8.80;99.90;;;;;;4998970;28;20045;-68
2022/09/23 00:51:59;;;;;;;15.18;13.60;;;8.70;99.90;;;;;;4995668;28;20528;-67
2022/09/23 00:54:26;;;;;;;16.67;15.18;;;8.70;99.90;;;;;;4999446;28;20031;-67
2022/09/23 00:56:53;;;;;;;16.88;15.25;;;8.70;99.90;;;;;;5003213;28;20050;-68
2022/09/23 00:59:20;;;;;;;16.92;15.32;;;8.70;99.90;;;;;;5001020;28;20065;-67
2022/09/23 01:01:48;;;;;;;16.33;14.60;;;8.70;99.90;;;;;;4999092;28;20128;-68
2022/09/23 01:04:14;;;;;;;20.58;18.08;;;8.70;99.90;;;;;;5004524;28;20037;-67
2022/09/23 01:06:40;;;;;;;17.55;15.88;;;8.70;99.90;;;;;;5002153;28;20042;-67
2022/09/23 01:09:06;;;;;;;18.55;16.38;;;8.70;99.90;;;;;;5002460;28;20433;-67
2022/09/23 01:11:58;;;;;;;16.85;15.15;;;8.70;99.90;;;;;;5001186;28;20042;-67
2022/09/23 01:14:44;;;;;;;16.92;15.32;;;8.70;99.90;;;;;;4997487;28;20564;-67
2022/09/23 01:17:28;;;;;;;16.80;15.10;;;8.70;99.90;;;;;;4982028;28;20039;-68
2022/09/23 01:20:07;;;;;;;17.30;15.70;;;8.70;99.90;;;;;;4999570;28;20096;-68
2022/09/23 01:22:50;;;;;;;17.95;16.30;;;8.70;99.90;;;;;;4999922;28;20053;-67
2022/09/23 01:25:43;;;;;;;17.65;15.80;;;8.70;99.90;;;;;;4996837;28;20030;-67
2022/09/23 01:28:29;;;;;;;17.77;15.93;;;8.70;99.90;;;;;;5003844;28;20494;-67
2022/09/23 01:31:03;;;;;;;18.38;16.48;;;8.70;99.90;;;;;;5004600;28;20049;-68
2022/09/23 01:33:43;;;;;;;17.75;16.15;;;8.70;99.90;;;;;;5002818;28;20105;-67
2022/09/23 01:36:25;;;;;;;18.92;17.13;;;8.60;99.90;;;;;;5004054;28;20050;-67
2022/09/23 01:39:11;;;;;;;20.85;17.15;;;8.60;99.90;;;;;;5000455;28;20058;-67
2022/09/23 01:42:01;;;;;;;17.52;15.82;;;8.50;99.90;;;;;;4998788;28;20048;-68
2022/09/23 01:44:41;;;;;;;15.98;14.48;;;8.50;99.90;;;;;;5000982;28;20080;-67
2022/09/23 01:47:33;;;;;;;18.23;16.45;;;8.50;99.90;;;;;;5001439;28;20498;-67
2022/09/23 01:53:00;;;;;;;18.30;16.67;;;8.50;99.90;;;;;;5000956;28;20246;-67
2022/09/23 01:55:29;;;;;;;17.38;15.68;;;8.50;99.90;;;;;;5002171;28;20042;-67
2022/09/23 01:58:14;;;;;;;17.40;15.77;;;8.40;99.90;;;;;;5002188;28;20061;-67
2022/09/23 02:00:59;;;;;;;18.00;16.25;;;8.50;99.90;;;;;;4995118;28;20071;-68
2022/09/23 02:03:27;;;;;;;;;;;8.50;99.90;;;;;;4997571;28;20062;-67
2022/09/23 02:05:59;;;;;;;16.02;14.38;;;8.50;99.90;;;;;;5004781;28;19971;-67
2022/09/23 02:08:40;;;;;;;17.08;15.30;;;8.50;99.90;;;;;;5004211;28;20046;-68
2022/09/23 02:11:09;;;;;;;18.33;16.48;;;8.50;99.90;;;;;;5002200;28;20038;-68
2022/09/23 02:13:47;;;;;;;18.25;16.55;;;8.50;99.90;;;;;;5003698;28;20046;-68
2022/09/23 02:16:23;;;;;;;18.25;16.58;;;8.50;99.90;;;;;;5001907;28;20489;-68
2022/09/23 02:19:00;;;;;;;16.98;15.40;;;8.50;99.90;;;;;;5005037;28;20073;-67
2022/09/23 02:21:32;;;;;;;17.45;15.75;;;8.50;99.90;;;;;;5003197;28;20041;-67
2022/09/23 02:24:08;;;;;;;16.50;15.00;;;8.50;99.90;;;;;;4999592;28;20041;-67
2022/09/23 02:27:12;;;;;;;16.08;14.57;;;8.50;99.90;;;;;;5000429;28;20173;-67
2022/09/23 02:30:01;;;;;;;16.48;14.85;;;8.50;99.90;;;;;;4988058;28;20343;-67
2022/09/23 02:32:48;;;;;;;15.88;14.25;;;8.40;99.90;;;;;;5001406;28;20146;-68
2022/09/23 02:35:31;;;;;;;15.68;14.23;;;8.50;99.90;;;;;;5000516;28;20401;-68
2022/09/23 02:38:31;;;;;;;15.32;13.90;;;8.40;99.90;;;;;;5003665;28;20046;-68
2022/09/23 02:41:08;;;;;;;16.58;14.88;;;8.40;99.90;;;;;;5004353;28;20092;-68
2022/09/23 02:43:43;;;;;;;16.83;14.75;;;8.30;99.90;;;;;;5003885;28;20053;-68
2022/09/23 02:46:08;;;;;;;16.35;14.77;;;8.30;99.90;;;;;;5010037;28;20042;-68
2022/09/23 02:48:43;;;;;;;15.75;14.38;;;8.30;99.90;;;;;;5007657;28;20071;-68
2022/09/23 02:51:09;;;;;;;14.95;13.65;;;8.20;99.90;;;;;;5004979;28;20057;-68
2022/09/23 02:53:35;;;;;;;15.95;14.35;;;8.20;99.90;;;;;;5002683;28;20049;-68
2022/09/23 02:56:11;;;;;;;15.32;13.93;;;8.20;99.90;;;;;;4997836;28;20450;-68
2022/09/23 02:58:37;;;;;;;16.77;15.07;;;8.20;99.90;;;;;;5002422;28;20072;-68
2022/09/23 03:01:17;;;;;;;16.58;14.95;;;8.10;99.90;;;;;;5000161;28;20054;-68
2022/09/23 03:04:01;;;;;;;17.08;15.40;;;8.20;99.90;;;;;;5004033;28;20493;-68
2022/09/23 03:06:31;;;;;;;16.85;15.35;;;8.10;99.90;;;;;;5004611;28;20489;-68
2022/09/23 03:09:16;;;;;;;17.40;15.80;;;8.00;99.90;;;;;;5007622;28;20046;-68
2022/09/23 03:11:47;;;;;;;15.63;14.13;;;8.00;99.90;;;;;;5002738;28;20047;-68
2022/09/23 03:14:23;;;;;;;16.33;14.73;;;8.00;99.90;;;;;;5008681;28;20050;-68
2022/09/23 03:16:55;;;;;;;17.75;16.08;;;8.00;99.90;;;;;;5005602;28;20121;-68
2022/09/23 03:19:24;;;;;;;18.33;15.70;;;8.00;99.90;;;;;;5005503;28;20053;-68
2022/09/23 03:22:14;;;;;;;16.17;14.73;;;8.00;99.90;;;;;;4999255;28;20045;-67
2022/09/23 03:24:43;;;;;;;16.10;14.60;;;7.90;99.90;;;;;;5005412;28;20644;-68
2022/09/23 03:27:20;;;;;;;18.58;15.77;;;7.90;99.90;;;;;;5001629;28;20045;-68
2022/09/23 03:29:48;;;;;;;16.63;14.90;;;7.90;99.90;;;;;;5005526;28;20497;-68
2022/09/23 03:32:17;;;;;;;17.13;15.70;;;7.90;99.90;;;;;;5000404;28;20084;-67
2022/09/23 03:34:45;;;;;;;17.52;15.02;;;7.90;99.90;;;;;;5002858;28;20034;-68
2022/09/23 03:37:20;;;;;;;18.08;16.08;;;7.90;99.90;;;;;;5006027;28;20066;-68
2022/09/23 03:39:45;;;;;;;;;;;7.80;99.90;;;;;;5001459;28;20455;-68
2022/09/23 03:42:19;;;;;;;14.88;13.57;;;7.80;99.90;;;;;;4997496;28;19922;-68
2022/09/23 03:44:46;;;;;;;19.08;17.15;;;7.80;99.90;;;;;;5003788;28;20113;-67
2022/09/23 03:47:14;;;;;;;17.40;15.65;;;7.80;99.90;;;;;;4998902;28;20062;-68
2022/09/23 03:49:43;;;;;;;18.42;16.63;;;7.80;99.90;;;;;;5007121;28;20034;-68
2022/09/23 03:52:09;;;;;;;16.92;15.07;;;7.80;99.90;;;;;;5006062;28;20050;-68
2022/09/23 03:54:35;;;;;;;18.15;16.42;;;7.80;99.90;;;;;;5007067;28;20049;-67
2022/09/23 03:57:01;;;;;;;18.42;16.27;;;7.80;99.90;;;;;;5000692;28;20501;-67
2022/09/23 03:59:29;;;;;;;17.55;16.05;;;7.70;99.90;;;;;;5001951;28;20048;-68
2022/09/23 04:01:55;;;;;;;18.05;16.38;;;7.80;99.90;;;;;;4996613;28;20049;-67
2022/09/23 04:04:21;;;;;;;17.95;16.33;;;7.80;99.90;;;;;;4981646;28;20270;-67
2022/09/23 04:06:47;;;;;;;17.27;15.77;;;7.70;99.90;;;;;;4996771;28;20105;-68
2022/09/23 04:09:13;;;;;;;17.75;16.10;;;7.70;99.90;;;;;;5007717;28;20049;-68
2022/09/23 04:11:39;;;;;;;18.25;16.52;;;7.70;99.90;;;;;;5000936;28;20074;-67
2022/09/23 04:14:06;;;;;;;16.70;15.00;;;7.80;99.90;;;;;;5004896;28;20080;-67
2022/09/23 04:16:31;;;;;;;17.30;15.52;;;7.80;99.90;;;;;;5003699;28;20136;-68
2022/09/23 04:18:57;;;;;;;17.52;15.70;;;7.90;99.90;;;;;;5001948;28;20125;-68
2022/09/23 04:21:22;;;;;;;16.60;15.10;;;7.80;99.90;;;;;;4987313;28;20050;-67
2022/09/23 04:23:48;;;;;;;17.42;15.82;;;7.90;99.90;;;;;;5001024;28;20038;-68
2022/09/23 04:26:14;;;;;;;17.13;15.52;;;7.80;99.90;;;;;;5003696;28;20030;-67
2022/09/23 04:28:40;;;;;;;16.00;14.57;;;7.80;99.90;;;;;;4999111;28;20517;-68
2022/09/23 04:31:07;;;;;;;17.80;16.10;;;7.80;99.90;;;;;;5002807;28;20077;-67
2022/09/23 04:33:33;;;;;;;17.17;15.48;;;7.90;99.90;;;;;;5004683;28;20037;-68
2022/09/23 04:35:59;;;;;;;17.85;15.85;;;7.80;99.90;;;;;;5002833;28;20127;-68
2022/09/23 04:38:25;;;;;;;17.08;15.50;;;7.80;99.90;;;;;;5002547;28;20030;-67
2022/09/23 04:40:50;;;;;;;17.05;15.35;;;7.80;99.90;;;;;;5003169;28;20046;-68
2022/09/23 04:43:16;;;;;;;17.23;15.52;;;7.80;99.90;;;;;;5008301;28;20046;-67
2022/09/23 04:45:43;;;;;;;17.65;15.00;;;7.90;99.90;;;;;;5001002;28;20042;-68
2022/09/23 04:48:10;;;;;;;17.27;15.73;;;7.90;99.90;;;;;;5000439;28;20541;-68
2022/09/23 04:50:36;;;;;;;17.65;16.00;;;7.90;99.90;;;;;;5018943;28;20053;-68
2022/09/23 04:53:03;;;;;;;16.85;15.25;;;7.90;99.90;;;;;;4997660;28;20088;-68
2022/09/23 04:55:29;;;;;;;16.75;15.05;;;7.90;99.90;;;;;;5000519;28;20073;-68
2022/09/23 04:57:55;;;;;;;17.00;15.25;;;7.90;99.90;;;;;;5002956;28;20113;-67
2022/09/23 05:00:22;;;;;;;17.27;15.73;;;7.90;99.90;;;;;;5002303;28;20081;-68
2022/09/23 05:02:49;;;;;;;18.67;16.85;;;7.90;99.90;;;;;;5000583;28;20058;-67
2022/09/23 05:05:19;;;;;;;17.35;15.60;;;7.80;99.90;;;;;;5005653;28;20037;-68
2022/09/23 05:07:47;;;;;;;17.33;15.73;;;7.80;99.90;;;;;;5002438;28;20386;-68
2022/09/23 05:10:13;;;;;;;17.02;15.30;;;7.90;99.90;;;;;;4998346;28;20054;-68
2022/09/23 05:12:39;;;;;;;16.58;15.07;;;7.80;99.90;;;;;;5002431;28;20045;-68
2022/09/23 05:15:05;;;;;;;15.88;14.40;;;7.80;99.90;;;;;;4994875;28;20591;-68
2022/09/23 05:17:31;;;;;;;16.05;14.35;;;7.80;99.90;;;;;;5001117;28;20045;-67
2022/09/23 05:19:59;;;;;;;15.45;14.10;;;7.80;99.90;;;;;;5001880;28;20049;-68
2022/09/23 05:22:25;;;;;;;16.48;14.75;;;7.80;99.90;;;;;;5007890;28;20033;-67
2022/09/23 05:24:52;;;;;;;16.05;14.48;;;7.80;99.90;;;;;;5001260;28;20042;-68
2022/09/23 05:27:18;;;;;;;32.17;28.98;;;7.80;99.90;;;;;;5004035;28;20103;-66
2022/09/23 05:29:44;;;;;;;18.95;17.15;;;7.70;99.90;;;;;;5001984;28;20046;-67
2022/09/23 05:32:10;;;;;;;18.50;16.48;;;7.70;99.90;;;;;;5000779;28;20034;-67
2022/09/23 05:34:36;;;;;;;17.60;15.80;;;7.70;99.90;;;;;;5005312;28;20038;-67
2022/09/23 05:37:02;;;;;;;18.00;16.35;;;7.70;99.90;;;;;;5000011;28;20041;-68
2022/09/23 05:39:28;;;;;;;17.70;15.85;;;7.70;99.90;;;;;;5000318;28;20482;-68
2022/09/23 05:41:54;;;;;;;17.42;15.82;;;7.80;99.90;;;;;;4997649;28;20108;-68
2022/09/23 05:44:20;;;;;;;17.40;15.77;;;7.80;99.90;;;;;;5001397;28;20463;-67
2022/09/23 05:46:45;;;;;;;18.63;16.77;;;7.80;99.90;;;;;;4997488;28;20082;-68
2022/09/23 05:49:11;;;;;;;17.88;16.20;;;7.80;99.90;;;;;;5003468;28;20037;-68
2022/09/23 05:51:37;;;;;;;17.35;15.60;;;7.80;99.90;;;;;;5002930;28;20366;-67
2022/09/23 05:54:04;;;;;;;18.10;16.20;;;7.90;99.90;;;;;;5001691;28;20049;-67
2022/09/23 05:56:32;;;;;;;17.65;15.85;;;7.90;99.90;;;;;;5003125;28;20054;-68
2022/09/23 05:58:59;;;;;;;18.70;15.88;;;8.00;99.90;;;;;;5004173;28;20044;-68
2022/09/23 06:01:30;;;;;;;18.23;16.67;;;8.00;99.90;;;;;;5000994;28;20073;-68
2022/09/23 06:03:57;;;;;;;16.95;15.43;;;8.10;99.90;;;;;;5001407;28;20120;-68
2022/09/23 06:06:33;;;;;;;17.17;15.52;;;8.10;99.90;;;;;;4999705;28;20042;-68
2022/09/23 06:08:59;;;;;;;18.15;15.35;;;8.20;99.90;;;;;;5010176;28;20045;-68
2022/09/23 06:11:28;;;;;;;17.77;16.08;;;8.30;99.90;;;;;;5003186;28;20477;-67
2022/09/23 06:13:59;;;;;;;17.55;15.25;;;8.40;99.90;;;;;;5001980;28;20057;-67
2022/09/23 06:16:26;;;;;;;16.17;14.68;;;8.50;99.90;;;;;;5016072;28;20083;-67
2022/09/23 06:18:52;;;;;;;16.23;14.82;;;8.60;99.90;;;;;;5003190;28;20359;-67
2022/09/23 06:21:18;;;;;;;16.90;15.07;;;8.70;99.90;;;;;;5005858;28;20065;-67
2022/09/23 06:23:44;;;;;;;16.80;15.13;;;8.80;99.90;;;;;;5003826;28;20049;-67
2022/09/23 06:26:12;;;;;;;15.15;13.65;;;8.90;99.90;;;;;;5003746;28;20486;-67
2022/09/23 06:28:39;;;;;;;16.38;14.88;;;9.10;99.90;;;;;;4999368;28;20135;-68
2022/09/23 06:31:08;;;;;;;16.60;15.00;;;9.20;99.90;;;;;;5003109;28;20042;-67
2022/09/23 06:33:34;;;;;;;19.60;17.70;;;9.30;99.90;;;;;;5005563;28;20042;-67
2022/09/23 06:36:02;;;;;;;16.67;15.07;;;9.50;99.90;;;;;;5005928;28;20478;-67
2022/09/23 06:38:29;;;;;;;16.40;13.82;;;9.60;99.90;;;;;;5004550;28;20044;-67
2022/09/23 06:40:57;;;;;;;14.35;12.85;;;9.70;99.90;;;;;;5000513;28;20049;-67
2022/09/23 06:43:24;;;;;;;15.20;13.73;;;9.80;99.90;;;;;;5004731;28;20466;-67
2022/09/23 06:46:00;;;;;;;15.48;13.32;;;9.80;99.90;;;;;;5003089;28;20097;-68
2022/09/23 06:48:27;;;;;;;14.05;12.50;;;9.90;99.90;;;;;;5001587;28;20532;-67
2022/09/23 06:50:57;;;;;;;14.05;12.80;;;9.90;99.90;;;;;;5002510;28;20061;-67
2022/09/23 06:53:23;;;;;;;14.25;12.85;;;9.90;99.90;;;;;;5003009;28;20083;-67
2022/09/23 06:55:58;;;;;;;14.27;12.77;;;10.00;99.90;;;;;;5005066;28;20121;-67
2022/09/23 06:58:25;;;;;;;13.50;12.18;;;10.00;99.90;;;;;;5004193;28;20447;-67
2022/09/23 07:00:51;;;;;;;13.25;11.48;;;10.00;99.90;;;;;;5004987;28;20053;-67
2022/09/23 07:03:17;;;;;;;13.52;12.13;;;10.00;99.90;;;;;;5005746;28;20041;-68
2022/09/23 07:05:43;;;;;;;13.48;12.02;;;10.00;99.90;;;;;;5006550;28;20042;-66
2022/09/23 07:08:09;;;;;;;14.32;12.80;;;10.00;99.90;;;;;;5004211;28;20072;-68
2022/09/23 07:10:35;;;;;;;14.80;12.82;;;10.10;99.90;;;;;;5005471;28;20406;-67
2022/09/23 07:13:04;;;;;;;13.93;11.70;;;10.20;99.90;;;;;;5005497;28;20053;-68
2022/09/23 07:15:30;;;;;;;14.93;11.27;;;10.20;99.90;;;;;;5005717;28;20050;-68
2022/09/23 07:17:56;;;;;;;12.80;11.50;;;10.20;99.90;;;;;;5009113;28;20050;-68
2022/09/23 07:20:22;;;;;;;14.90;12.82;;;10.30;99.90;;;;;;4997642;28;20048;-67
2022/09/23 07:22:51;;;;;;;13.43;11.30;;;10.30;99.90;;;;;;5006491;28;20498;-66
2022/09/23 07:25:18;;;;;;;12.63;11.43;;;10.40;99.90;;;;;;5002132;28;20046;-66
2022/09/23 07:27:46;;;;;;;14.80;11.65;;;10.50;99.90;;;;;;5009626;28;20035;-66
2022/09/23 07:30:13;;;;;;;13.35;11.75;;;10.50;99.90;;;;;;5002396;28;20094;-67
2022/09/23 07:32:39;;;;;;;11.73;10.50;;;10.60;99.90;;;;;;5007113;28;20468;-67
2022/09/23 07:35:06;;;;;;;13.65;12.35;;;10.70;99.90;;;;;;5008501;28;20049;-67
2022/09/23 07:37:32;;;;;;;15.50;11.90;;;10.80;99.90;;;;;;5001471;28;20046;-68
2022/09/23 07:39:57;;;;;;;13.70;11.48;;;10.90;99.90;;;;;;5009942;28;20116;-68
2022/09/23 07:42:23;;;;;;;13.75;11.20;;;11.10;99.90;;;;;;5001804;28;20464;-68
2022/09/23 07:44:49;;;;;;;12.82;11.55;;;11.20;99.90;;;;;;5004005;28;20407;-68
2022/09/23 07:47:16;;;;;;;14.73;10.52;;;11.30;99.90;;;;;;5004013;28;20050;-68
2022/09/23 07:49:42;;;;;;;11.60;10.13;;;11.40;99.90;;;;;;5003255;28;20041;-67
2022/09/23 07:52:07;;;;;;;13.05;10.57;;;11.50;99.90;;;;;;5005050;28;20477;-66
2022/09/23 07:54:33;;;;;;;12.32;10.20;;;11.70;99.90;;;;;;5001587;28;20091;-68
2022/09/23 07:56:59;;;;;;;11.75;10.68;;;11.70;99.90;;;;;;5006436;28;20052;-68
2022/09/23 07:59:26;;;;;;;12.43;9.75;;;11.80;99.90;;;;;;5002948;28;20355;-67
2022/09/23 08:01:52;;;;;;;11.68;10.43;;;11.90;99.90;;;;;;5005184;28;20049;-67
2022/09/23 08:04:22;;;;;;;11.70;10.40;;;11.90;99.90;;;;;;5004997;28;20188;-68
2022/09/23 08:06:53;;;;;;;13.10;9.88;;;12.00;99.90;;;;;;5001076;28;20145;-68
2022/09/23 08:09:21;;;;;;;14.25;10.63;;;12.10;99.90;;;;;;5001869;28;20052;-69
2022/09/23 08:11:48;;;;;;;11.43;10.13;;;12.10;99.90;;;;;;5003602;28;20124;-67
2022/09/23 08:14:16;;;;;;;14.13;9.77;;;12.20;99.90;;;;;;5003078;28;20107;-66
2022/09/23 08:16:44;;;;;;;11.00;9.77;;;12.30;99.90;;;;;;5002183;28;20050;-66
2022/09/23 08:19:10;;;;;;;13.88;10.52;;;12.30;99.90;;;;;;5002043;28;20057;-69
2022/09/23 08:21:38;;;;;;;12.18;10.60;;;12.30;99.90;;;;;;5000487;28;20065;-69
2022/09/23 08:24:16;;;;;;;10.82;9.73;;;12.40;99.90;;;;;;4999206;28;20133;-66
2022/09/23 08:26:42;;;;;;;11.13;9.80;;;12.50;99.90;;;;;;5001404;28;20073;-67
2022/09/23 08:29:11;;;;;;;12.40;9.60;;;12.50;99.90;;;;;;5003030;28;20052;-69
2022/09/23 08:31:36;;;;;;;11.75;9.13;;;12.60;99.90;;;;;;4998994;28;20565;-69
2022/09/23 08:34:02;;;;;;;9.65;8.68;;;12.60;99.90;;;;;;4999386;28;20121;-69
2022/09/23 08:36:28;;;;;;;10.85;8.80;;;12.70;99.90;;;;;;5002435;28;20046;-68
2022/09/23 08:38:54;;;;;;;9.23;8.15;;;12.70;99.90;;;;;;5003774;28;20026;-69
2022/09/23 08:41:51;;;;;;;9.90;8.95;;;12.80;99.90;;;;;;5000980;28;20050;-69
2022/09/23 08:44:25;;;;;;;9.52;8.48;;;12.80;99.90;;;;;;5003839;28;20053;-69
2022/09/23 08:47:13;;;;;;;9.55;8.48;;;13.00;99.90;;;;;;5001832;28;20134;-67
2022/09/23 08:49:50;;;;;;;9.52;8.43;;;13.20;99.90;;;;;;5000436;28;20125;-67
2022/09/23 08:52:43;;;;;;;9.07;8.18;;;13.30;99.90;;;;;;5002222;28;20054;-66
2022/09/23 08:55:13;;;;;;;9.00;8.10;;;13.40;99.90;;;;;;5003076;28;20478;-69
2022/09/23 08:57:48;;;;;;;10.90;9.80;;;13.60;99.90;;;;;;5001456;28;20081;-66
2022/09/23 09:00:22;;;;;;;9.27;8.38;;;13.70;99.90;;;;;;5005058;28;20118;-68
2022/09/23 09:02:54;;;;;;;9.82;8.15;;;13.90;99.90;;;;;;5020262;28;20069;-68
2022/09/23 09:05:30;;;;;;;11.60;8.50;;;14.00;99.90;;;;;;5000762;28;20524;-68
2022/09/23 09:08:01;;;;;;;9.40;8.20;;;14.20;99.90;;;;;;4998909;28;20050;-68
2022/09/23 09:10:40;;;;;;;10.60;8.57;;;14.30;99.90;;;;;;5002510;28;20128;-68
2022/09/23 09:13:19;;;;;;;11.93;8.38;;;14.40;99.90;;;;;;4987980;28;20054;-68
2022/09/23 09:15:56;;;;;;;9.77;8.48;;;14.50;99.90;;;;;;4997291;28;20054;-68
2022/09/23 09:18:23;;;;;;;9.48;8.57;;;14.70;99.90;;;;;;4997279;28;20119;-68
2022/09/23 09:21:14;;;;;;;14.70;8.20;;;14.90;99.90;;;;;;5004400;28;20046;-68
2022/09/23 09:23:58;;;;;;;11.88;8.23;;;15.10;99.90;;;;;;4994578;28;20137;-68
2022/09/23 09:26:25;;;;;;;13.17;7.93;;;15.50;99.90;;;;;;5005124;28;20054;-68
2022/09/23 09:29:09;;;;;;;10.77;7.55;;;15.70;99.90;;;;;;5003670;28;20060;-68
2022/09/23 09:31:38;;;;;;;9.07;7.33;;;16.10;99.90;;;;;;4998409;28;20367;-68
2022/09/23 09:34:17;;;;;;;8.98;7.28;;;16.50;99.90;;;;;;5001395;28;20045;-68
2022/09/23 09:37:05;;;;;;;8.43;7.53;;;16.80;99.90;;;;;;5000764;28;20395;-68
2022/09/23 09:39:35;;;;;;;11.75;7.25;;;16.90;99.90;;;;;;5016411;28;20128;-68
2022/09/23 09:42:03;;;;;;;9.60;6.60;;;17.20;99.90;;;;;;4997549;28;20061;-68
2022/09/23 09:44:53;;;;;;;9.32;6.95;;;17.40;99.90;;;;;;4997610;28;20109;-68
2022/09/23 09:47:45;;;;;;;7.70;6.88;;;17.70;99.90;;;;;;4997782;28;20069;-68
2022/09/23 09:50:20;;;;;;;8.82;6.75;;;18.00;99.90;;;;;;5008796;28;20065;-68
2022/09/23 09:52:52;;;;;;;7.95;6.60;;;18.10;99.90;;;;;;5001555;28;20504;-68
2022/09/23 09:55:27;;;;;;;8.05;6.85;;;18.30;99.90;;;;;;5005770;28;20192;-68
2022/09/23 09:58:04;;;;;;;;;;;18.40;99.90;;;;;;5005490;28;20088;-68
2022/09/23 10:00:30;;;;;;;9.27;6.22;;;18.30;99.90;;;;;;5005350;28;20017;-68
2022/09/23 10:03:14;;;;;;;9.18;6.63;;;18.10;99.90;;;;;;5002173;28;20133;-68
2022/09/23 10:05:42;;;;;;;9.80;6.90;;;17.80;99.90;;;;;;5007400;28;20462;-68
2022/09/23 10:08:17;;;;;;;9.30;6.50;;;17.60;99.90;;;;;;5007295;28;20049;-69
2022/09/23 10:10:54;;;;;;;7.53;5.97;;;17.50;99.90;;;;;;5009967;28;20046;-69
2022/09/23 10:13:23;;;;;;;7.93;6.57;;;17.40;99.90;;;;;;5007237;28;20053;-69
2022/09/23 10:15:53;;;;;;;8.82;6.97;;;17.20;99.90;;;;;;5009356;28;20104;-68
2022/09/23 10:18:49;;;;;;;9.32;6.47;;;17.10;99.90;;;;;;5012141;28;20041;-68
2022/09/23 10:21:19;;;;;;;7.97;6.65;;;17.00;99.90;;;;;;5008834;28;20108;-68
2022/09/23 10:23:47;;;;;;;7.65;6.95;;;16.90;99.90;;;;;;5004177;28;20042;-68
2022/09/23 10:26:17;;;;;;;7.43;6.72;;;16.80;99.90;;;;;;5007783;28;20081;-68
2022/09/23 10:28:54;;;;;;;8.25;6.03;;;16.70;99.90;;;;;;5005765;28;20050;-68
2022/09/23 10:31:25;;;;;;;6.40;5.80;;;16.70;99.90;;;;;;5005162;28;20038;-67
2022/09/23 10:33:56;;;;;;;7.97;6.13;;;16.60;99.90;;;;;;5006311;28;20050;-68
2022/09/23 10:36:22;;;;;;;7.05;6.32;;;16.60;99.90;;;;;;5025881;28;20044;-68
2022/09/23 10:38:53;;;;;;;8.95;7.10;;;16.60;99.90;;;;;;5009272;28;20496;-69
2022/09/23 10:47:35;;;;;;;10.18;6.90;;;16.60;99.90;;;;;;5003823;28;20459;-68
2022/09/23 10:50:14;;;;;;;9.10;6.97;;;16.60;99.90;;;;;;4999710;28;20064;-69
2022/09/23 10:53:13;;;;;;;8.18;6.85;;;16.50;99.90;;;;;;5003924;28;20177;-68
2022/09/23 10:55:57;;;;;;;7.15;6.45;;;16.50;99.90;;;;;;5002936;28;20058;-69
2022/09/23 10:58:49;;;;;;;9.00;6.70;;;16.50;99.90;;;;;;5004436;28;20049;-68
2022/09/23 11:01:20;;;;;;;7.25;6.47;;;16.50;99.90;;;;;;5007184;28;20111;-69
2022/09/23 11:03:58;;;;;;;7.18;6.47;;;16.40;99.90;;;;;;5007260;28;20046;-68
2022/09/23 11:06:57;;;;;;;12.68;6.70;;;16.50;99.90;;;;;;5004545;28;20038;-68
2022/09/23 11:09:39;;;;;;;8.20;7.38;;;16.40;99.90;;;;;;5001084;28;20469;-68
2022/09/23 11:12:30;;;;;;;10.30;7.72;;;16.30;99.90;;;;;;5005142;28;20050;-69
2022/09/23 11:15:17;;;;;;;7.43;6.60;;;16.30;99.90;;;;;;5002906;28;20502;-69
2022/09/23 11:17:49;;;;;;;9.07;7.93;;;16.30;99.90;;;;;;5001602;28;20127;-68
2022/09/23 11:20:33;;;;;;;12.43;7.40;;;16.30;99.90;;;;;;5002455;28;20470;-68
2022/09/23 11:23:31;;;;;;;7.82;7.03;;;16.40;99.90;;;;;;5004848;28;20033;-68
2022/09/23 11:26:21;;;;;;;10.05;7.13;;;16.40;99.90;;;;;;5002260;28;20054;-68
2022/09/23 11:29:12;;;;;;;9.02;7.88;;;16.30;99.90;;;;;;5007050;28;20129;-68
2022/09/23 11:32:22;;;;;;;12.00;7.68;;;16.30;99.90;;;;;;5005539;28;20042;-68
2022/09/23 11:35:18;;;;;;;7.82;7.13;;;16.30;99.90;;;;;;4994927;28;20050;-69
2022/09/23 11:37:56;;;;;;;9.90;7.72;;;16.30;99.90;;;;;;5007321;28;20129;-68
2022/09/23 11:40:29;;;;;;;9.68;7.40;;;16.30;99.90;;;;;;5004544;28;20372;-68
2022/09/23 11:43:22;;;;;;;12.60;8.77;;;16.30;99.90;;;;;;5004656;28;20054;-68
2022/09/23 11:45:55;;;;;;;9.23;7.60;;;16.30;99.90;;;;;;5001430;28;20057;-68
2022/09/23 11:48:36;;;;;;;12.95;7.50;;;16.20;99.90;;;;;;5002627;28;20064;-68
2022/09/23 11:51:10;;;;;;;10.32;8.32;;;16.20;99.90;;;;;;5022909;28;20038;-67
2022/09/23 11:53:39;;;;;;;8.73;7.60;;;16.20;99.90;;;;;;5001016;28;20046;-67
2022/09/23 11:56:20;;;;;;;13.48;7.45;;;16.20;99.90;;;;;;5002758;28;20132;-67
2022/09/23 11:58:55;;;;;;;9.20;8.23;;;16.20;99.90;;;;;;4983204;28;20375;-68
2022/09/23 12:01:40;;;;;;;10.30;8.32;;;16.20;99.90;;;;;;5004246;28;20041;-68
2022/09/23 12:04:13;;;;;;;9.05;8.10;;;16.30;99.90;;;;;;5003789;28;20058;-68
2022/09/23 12:06:45;;;;;;;9.32;8.35;;;16.30;99.90;;;;;;5003669;28;20125;-68
2022/09/23 12:09:28;;;;;;;9.35;7.60;;;16.30;99.90;;;;;;5003073;28;20048;-68
2022/09/23 12:12:04;;;;;;;8.43;7.53;;;16.40;99.90;;;;;;5007389;28;20062;-68
2022/09/23 12:14:54;;;;;;;9.75;8.18;;;16.30;99.90;;;;;;5000151;28;20046;-68
2022/09/23 12:17:55;;;;;;;10.68;8.05;;;16.30;99.90;;;;;;5008710;28;20049;-68
2022/09/23 12:20:47;;;;;;;8.52;7.05;;;16.50;99.90;;;;;;5002968;28;20041;-68
2022/09/23 12:23:31;;;;;;;8.38;6.97;;;16.50;99.90;;;;;;5005069;28;20061;-68
2022/09/23 12:26:16;;;;;;;8.37;7.50;;;16.40;99.90;;;;;;4999441;28;20073;-68
2022/09/23 12:28:46;;;;;;;12.63;7.55;;;16.40;99.90;;;;;;5009044;28;20426;-68
2022/09/23 12:31:15;;;;;;;8.32;7.25;;;16.40;99.90;;;;;;4999722;28;20053;-68
2022/09/23 12:33:48;;;;;;;8.70;7.03;;;16.40;99.90;;;;;;5000706;28;20054;-68
2022/09/23 12:36:14;;;;;;;8.33;6.97;;;16.40;99.90;;;;;;5005217;28;20037;-68
2022/09/23 12:38:52;;;;;;;8.93;7.45;;;16.40;99.90;;;;;;5005459;28;20195;-68
2022/09/23 12:41:25;;;;;;;9.75;6.93;;;16.30;99.90;;;;;;5002703;28;20081;-68
2022/09/23 12:43:55;;;;;;;9.73;6.47;;;16.30;99.90;;;;;;5001841;28;20136;-68
2022/09/23 12:46:24;;;;;;;8.13;7.30;;;16.30;99.90;;;;;;5000437;28;20052;-68
2022/09/23 12:48:56;;;;;;;8.80;7.28;;;16.30;99.90;;;;;;4993406;28;20042;-68
2022/09/23 12:51:22;;;;;;;9.73;7.38;;;16.30;99.90;;;;;;4993023;28;20037;-68
2022/09/23 12:53:58;;;;;;;8.73;7.82;;;16.30;99.90;;;;;;5001789;28;20136;-68
2022/09/23 12:56:25;;;;;;;10.32;7.50;;;16.20;99.90;;;;;;4995292;28;20056;-69
2022/09/23 12:59:20;;;;;;;12.75;9.75;;;16.20;99.90;;;;;;4991201;28;20046;-68
2022/09/23 13:01:46;;;;;;;9.98;8.55;;;16.30;99.90;;;;;;4997830;28;20492;-68
2022/09/23 13:07:16;;;;;;;7.65;6.90;;;16.20;99.90;;;;;;4990312;28;20140;-68
2022/09/23 13:09:48;;;;;;;9.57;6.88;;;16.20;99.90;;;;;;4989284;28;20054;-68
2022/09/23 13:12:23;;;;;;;9.18;7.82;;;16.30;99.90;;;;;;4995502;28;20058;-68
2022/09/23 13:14:53;;;;;;;9.50;6.53;;;16.30;99.90;;;;;;4995542;28;20061;-68
2022/09/23 13:17:39;;;;;;;8.18;7.30;;;16.30;99.90;;;;;;4988213;28;20062;-68